Keavy, Kentucky
Current Conditions -  °F | °C
As of 6:28 AM on Saturday 01 Nov 2014 (Local Time) from KLOZ Reporting Station
Light Snow Light Snow  
Wind Chill: 25°   Ceiling: 1400
Heat Index: 34°   Visibility: 3mi
Dew Point: 30°   Wind: 13mph
Humidity: 85%   Direction: 330°NNW
Pressure: 30.02"   Gusts: NA
Location:  37°N, 84.16°W
Report Text: KLOZ 011028Z AUTO 33011KT 3SM -SN BR BKN014 OVC021 01/M01 A3002 RMK AO2 P0000 T00111011
Loading
Personal Weather Stations






























Interactive Weather Map
Tropical Storm Tracking
New forecast layout! Learn more

10-Day Weather Forecast

Advertisements
Track Severe Weather on mobile